sensor_id;sensor_type;location;lat;lon;timestamp;P1;durP1;ratioP1;P2;durP2;ratioP2
64188;SDS011;50493;50.970;10.082;2023-05-10T00:00:26;4.78;;;3.55;;
64188;SDS011;50493;50.970;10.082;2023-05-10T00:02:53;8.38;;;3.78;;
64188;SDS011;50493;50.970;10.082;2023-05-10T00:05:18;5.35;;;3.60;;
64188;SDS011;50493;50.970;10.082;2023-05-10T00:07:44;4.97;;;3.25;;
64188;SDS011;50493;50.970;10.082;2023-05-10T00:10:10;5.40;;;3.83;;
64188;SDS011;50493;50.970;10.082;2023-05-10T00:12:36;5.38;;;3.35;;
64188;SDS011;50493;50.970;10.082;2023-05-10T00:15:02;6.88;;;3.53;;
64188;SDS011;50493;50.970;10.082;2023-05-10T00:17:28;5.18;;;3.55;;
64188;SDS011;50493;50.970;10.082;2023-05-10T00:19:55;4.95;;;3.50;;
64188;SDS011;50493;50.970;10.082;2023-05-10T00:22:20;5.60;;;3.53;;
64188;SDS011;50493;50.970;10.082;2023-05-10T00:24:45;5.95;;;3.80;;
64188;SDS011;50493;50.970;10.082;2023-05-10T00:27:11;4.85;;;3.60;;
64188;SDS011;50493;50.970;10.082;2023-05-10T00:29:36;5.60;;;3.50;;
64188;SDS011;50493;50.970;10.082;2023-05-10T00:32:02;5.07;;;3.38;;
64188;SDS011;50493;50.970;10.082;2023-05-10T00:34:27;5.13;;;3.33;;
64188;SDS011;50493;50.970;10.082;2023-05-10T00:36:54;5.20;;;3.55;;
64188;SDS011;50493;50.970;10.082;2023-05-10T00:39:19;5.05;;;3.47;;
64188;SDS011;50493;50.970;10.082;2023-05-10T00:41:45;4.65;;;3.53;;
64188;SDS011;50493;50.970;10.082;2023-05-10T00:44:10;5.57;;;3.42;;
64188;SDS011;50493;50.970;10.082;2023-05-10T00:46:36;6.07;;;4.00;;
64188;SDS011;50493;50.970;10.082;2023-05-10T00:49:01;5.80;;;4.13;;
64188;SDS011;50493;50.970;10.082;2023-05-10T00:51:27;4.80;;;3.30;;
64188;SDS011;50493;50.970;10.082;2023-05-10T00:53:54;5.40;;;3.33;;
64188;SDS011;50493;50.970;10.082;2023-05-10T00:56:20;5.57;;;3.80;;
64188;SDS011;50493;50.970;10.082;2023-05-10T00:58:48;5.45;;;3.30;;
64188;SDS011;50493;50.970;10.082;2023-05-10T01:01:13;4.65;;;3.40;;
64188;SDS011;50493;50.970;10.082;2023-05-10T01:03:39;6.97;;;3.38;;
64188;SDS011;50493;50.970;10.082;2023-05-10T01:06:05;5.47;;;3.70;;
64188;SDS011;50493;50.970;10.082;2023-05-10T01:08:30;5.97;;;3.50;;
64188;SDS011;50493;50.970;10.082;2023-05-10T01:10:58;4.70;;;3.35;;
64188;SDS011;50493;50.970;10.082;2023-05-10T01:13:29;5.50;;;3.40;;
64188;SDS011;50493;50.970;10.082;2023-05-10T01:15:58;4.78;;;3.55;;
64188;SDS011;50493;50.970;10.082;2023-05-10T01:18:24;4.35;;;3.40;;
64188;SDS011;50493;50.970;10.082;2023-05-10T01:20:59;5.43;;;3.50;;
64188;SDS011;50493;50.970;10.082;2023-05-10T01:23:45;5.55;;;3.65;;
64188;SDS011;50493;50.970;10.082;2023-05-10T01:26:42;4.72;;;3.65;;
64188;SDS011;50493;50.970;10.082;2023-05-10T01:29:47;6.38;;;3.60;;
64188;SDS011;50493;50.970;10.082;2023-05-10T01:32:32;6.40;;;3.65;;
64188;SDS011;50493;50.970;10.082;2023-05-10T01:35:07;5.45;;;3.70;;
64188;SDS011;50493;50.970;10.082;2023-05-10T01:37:37;4.90;;;3.78;;
64188;SDS011;50493;50.970;10.082;2023-05-10T01:40:08;5.80;;;4.35;;
64188;SDS011;50493;50.970;10.082;2023-05-10T01:42:40;7.25;;;4.00;;
64188;SDS011;50493;50.970;10.082;2023-05-10T01:45:13;5.63;;;3.80;;
64188;SDS011;50493;50.970;10.082;2023-05-10T01:47:44;5.93;;;4.57;;
64188;SDS011;50493;50.970;10.082;2023-05-10T01:50:15;7.15;;;4.10;;
64188;SDS011;50493;50.970;10.082;2023-05-10T01:52:50;6.22;;;4.05;;
64188;SDS011;50493;50.970;10.082;2023-05-10T01:55:20;5.90;;;3.95;;
64188;SDS011;50493;50.970;10.082;2023-05-10T01:57:47;7.03;;;4.10;;
64188;SDS011;50493;50.970;10.082;2023-05-10T02:02:46;5.45;;;4.10;;
64188;SDS011;50493;50.970;10.082;2023-05-10T02:05:14;6.20;;;3.80;;
64188;SDS011;50493;50.970;10.082;2023-05-10T02:07:41;5.78;;;3.67;;
64188;SDS011;50493;50.970;10.082;2023-05-10T02:10:08;6.53;;;4.00;;
64188;SDS011;50493;50.970;10.082;2023-05-10T02:12:35;6.53;;;4.88;;
64188;SDS011;50493;50.970;10.082;2023-05-10T02:15:02;6.88;;;4.60;;
64188;SDS011;50493;50.970;10.082;2023-05-10T02:17:29;6.68;;;4.05;;
64188;SDS011;50493;50.970;10.082;2023-05-10T02:19:57;7.65;;;4.13;;
64188;SDS011;50493;50.970;10.082;2023-05-10T02:22:24;5.53;;;4.07;;
64188;SDS011;50493;50.970;10.082;2023-05-10T02:24:51;6.18;;;4.00;;
64188;SDS011;50493;50.970;10.082;2023-05-10T02:27:19;5.15;;;3.78;;
64188;SDS011;50493;50.970;10.082;2023-05-10T02:29:45;6.10;;;4.35;;
64188;SDS011;50493;50.970;10.082;2023-05-10T02:32:12;6.53;;;4.05;;
64188;SDS011;50493;50.970;10.082;2023-05-10T02:34:38;6.25;;;4.25;;
64188;SDS011;50493;50.970;10.082;2023-05-10T02:37:06;5.88;;;4.43;;
64188;SDS011;50493;50.970;10.082;2023-05-10T02:39:32;5.65;;;3.97;;
64188;SDS011;50493;50.970;10.082;2023-05-10T02:41:58;5.70;;;3.78;;
64188;SDS011;50493;50.970;10.082;2023-05-10T02:44:25;5.63;;;4.18;;
64188;SDS011;50493;50.970;10.082;2023-05-10T02:46:53;6.45;;;4.35;;
64188;SDS011;50493;50.970;10.082;2023-05-10T02:49:20;6.63;;;3.95;;
64188;SDS011;50493;50.970;10.082;2023-05-10T02:51:47;7.07;;;3.95;;
64188;SDS011;50493;50.970;10.082;2023-05-10T02:54:18;5.97;;;4.82;;
64188;SDS011;50493;50.970;10.082;2023-05-10T02:56:47;7.65;;;4.60;;
64188;SDS011;50493;50.970;10.082;2023-05-10T02:59:15;7.60;;;4.38;;
64188;SDS011;50493;50.970;10.082;2023-05-10T03:01:41;6.05;;;4.20;;
64188;SDS011;50493;50.970;10.082;2023-05-10T03:04:06;5.57;;;4.40;;
64188;SDS011;50493;50.970;10.082;2023-05-10T03:06:32;8.38;;;5.47;;
64188;SDS011;50493;50.970;10.082;2023-05-10T03:08:57;7.72;;;5.38;;
64188;SDS011;50493;50.970;10.082;2023-05-10T03:11:37;7.38;;;5.35;;
64188;SDS011;50493;50.970;10.082;2023-05-10T03:14:13;8.57;;;6.15;;
64188;SDS011;50493;50.970;10.082;2023-05-10T03:16:46;8.52;;;5.90;;
64188;SDS011;50493;50.970;10.082;2023-05-10T03:19:26;9.70;;;6.20;;
64188;SDS011;50493;50.970;10.082;2023-05-10T03:21:55;12.07;;;7.28;;
64188;SDS011;50493;50.970;10.082;2023-05-10T03:24:24;8.15;;;5.07;;
64188;SDS011;50493;50.970;10.082;2023-05-10T03:26:53;8.65;;;6.43;;
64188;SDS011;50493;50.970;10.082;2023-05-10T03:29:21;7.65;;;4.50;;
64188;SDS011;50493;50.970;10.082;2023-05-10T03:31:50;7.50;;;5.80;;
64188;SDS011;50493;50.970;10.082;2023-05-10T03:34:15;7.18;;;5.55;;
64188;SDS011;50493;50.970;10.082;2023-05-10T03:36:42;6.10;;;4.63;;
64188;SDS011;50493;50.970;10.082;2023-05-10T03:39:07;6.05;;;4.93;;
64188;SDS011;50493;50.970;10.082;2023-05-10T03:41:33;5.68;;;4.15;;
64188;SDS011;50493;50.970;10.082;2023-05-10T03:43:59;7.68;;;4.90;;
64188;SDS011;50493;50.970;10.082;2023-05-10T03:46:25;6.38;;;4.40;;
64188;SDS011;50493;50.970;10.082;2023-05-10T03:48:50;5.97;;;4.20;;
64188;SDS011;50493;50.970;10.082;2023-05-10T03:51:15;6.63;;;4.68;;
64188;SDS011;50493;50.970;10.082;2023-05-10T03:53:41;9.88;;;6.50;;
64188;SDS011;50493;50.970;10.082;2023-05-10T03:56:06;11.60;;;7.07;;
64188;SDS011;50493;50.970;10.082;2023-05-10T03:58:31;9.38;;;6.57;;
64188;SDS011;50493;50.970;10.082;2023-05-10T04:00:58;9.77;;;6.40;;
64188;SDS011;50493;50.970;10.082;2023-05-10T04:03:23;10.68;;;7.38;;
64188;SDS011;50493;50.970;10.082;2023-05-10T04:05:57;7.88;;;6.30;;
64188;SDS011;50493;50.970;10.082;2023-05-10T04:08:23;8.80;;;6.72;;
64188;SDS011;50493;50.970;10.082;2023-05-10T04:10:48;8.02;;;6.22;;
64188;SDS011;50493;50.970;10.082;2023-05-10T04:13:14;10.95;;;7.60;;
64188;SDS011;50493;50.970;10.082;2023-05-10T04:15:39;7.57;;;5.60;;
64188;SDS011;50493;50.970;10.082;2023-05-10T04:18:06;8.93;;;6.10;;
64188;SDS011;50493;50.970;10.082;2023-05-10T04:20:31;7.18;;;5.68;;
64188;SDS011;50493;50.970;10.082;2023-05-10T04:22:57;6.00;;;4.68;;
64188;SDS011;50493;50.970;10.082;2023-05-10T04:25:23;5.97;;;4.65;;
64188;SDS011;50493;50.970;10.082;2023-05-10T04:27:48;6.60;;;5.13;;
64188;SDS011;50493;50.970;10.082;2023-05-10T04:30:14;7.00;;;5.30;;
64188;SDS011;50493;50.970;10.082;2023-05-10T04:32:39;7.50;;;5.13;;
64188;SDS011;50493;50.970;10.082;2023-05-10T04:35:06;6.80;;;4.60;;
64188;SDS011;50493;50.970;10.082;2023-05-10T04:37:32;7.22;;;5.10;;
64188;SDS011;50493;50.970;10.082;2023-05-10T04:39:57;6.35;;;5.03;;
64188;SDS011;50493;50.970;10.082;2023-05-10T04:42:24;6.88;;;4.63;;
64188;SDS011;50493;50.970;10.082;2023-05-10T04:44:50;6.05;;;4.13;;
64188;SDS011;50493;50.970;10.082;2023-05-10T04:47:16;6.68;;;4.70;;
64188;SDS011;50493;50.970;10.082;2023-05-10T04:49:42;6.63;;;4.80;;
64188;SDS011;50493;50.970;10.082;2023-05-10T04:52:08;6.40;;;4.82;;
64188;SDS011;50493;50.970;10.082;2023-05-10T04:54:34;6.55;;;4.53;;
64188;SDS011;50493;50.970;10.082;2023-05-10T04:56:59;6.70;;;4.60;;
64188;SDS011;50493;50.970;10.082;2023-05-10T04:59:25;6.25;;;4.55;;
64188;SDS011;50493;50.970;10.082;2023-05-10T05:01:50;6.38;;;4.70;;
64188;SDS011;50493;50.970;10.082;2023-05-10T05:04:16;6.53;;;4.82;;
64188;SDS011;50493;50.970;10.082;2023-05-10T05:06:41;6.53;;;4.88;;
64188;SDS011;50493;50.970;10.082;2023-05-10T05:09:08;6.93;;;5.53;;
64188;SDS011;50493;50.970;10.082;2023-05-10T05:11:35;6.90;;;4.70;;
64188;SDS011;50493;50.970;10.082;2023-05-10T05:14:00;5.95;;;4.82;;
64188;SDS011;50493;50.970;10.082;2023-05-10T05:16:25;6.60;;;4.88;;
64188;SDS011;50493;50.970;10.082;2023-05-10T05:18:51;5.95;;;4.93;;
64188;SDS011;50493;50.970;10.082;2023-05-10T05:21:17;6.18;;;4.93;;
64188;SDS011;50493;50.970;10.082;2023-05-10T05:23:43;6.10;;;4.50;;
64188;SDS011;50493;50.970;10.082;2023-05-10T05:26:10;7.35;;;4.60;;
64188;SDS011;50493;50.970;10.082;2023-05-10T05:28:35;6.00;;;4.55;;
64188;SDS011;50493;50.970;10.082;2023-05-10T05:31:02;7.85;;;5.20;;
64188;SDS011;50493;50.970;10.082;2023-05-10T05:33:27;8.38;;;5.80;;
64188;SDS011;50493;50.970;10.082;2023-05-10T05:35:53;9.63;;;5.80;;
64188;SDS011;50493;50.970;10.082;2023-05-10T05:38:18;6.20;;;4.20;;
64188;SDS011;50493;50.970;10.082;2023-05-10T05:40:44;5.57;;;4.60;;
64188;SDS011;50493;50.970;10.082;2023-05-10T05:43:11;4.97;;;3.30;;
64188;SDS011;50493;50.970;10.082;2023-05-10T05:45:37;1.90;;;1.40;;
64188;SDS011;50493;50.970;10.082;2023-05-10T05:48:02;3.72;;;1.55;;
64188;SDS011;50493;50.970;10.082;2023-05-10T05:50:28;3.67;;;2.65;;
64188;SDS011;50493;50.970;10.082;2023-05-10T05:52:53;2.65;;;1.75;;
64188;SDS011;50493;50.970;10.082;2023-05-10T05:55:19;3.05;;;2.10;;
64188;SDS011;50493;50.970;10.082;2023-05-10T05:57:44;1.65;;;1.20;;
64188;SDS011;50493;50.970;10.082;2023-05-10T06:00:11;3.90;;;2.38;;
64188;SDS011;50493;50.970;10.082;2023-05-10T06:02:38;3.47;;;2.63;;
64188;SDS011;50493;50.970;10.082;2023-05-10T06:05:03;2.72;;;1.42;;
64188;SDS011;50493;50.970;10.082;2023-05-10T06:07:29;2.47;;;1.95;;
64188;SDS011;50493;50.970;10.082;2023-05-10T06:09:54;4.15;;;3.03;;
64188;SDS011;50493;50.970;10.082;2023-05-10T06:12:20;4.07;;;2.45;;
64188;SDS011;50493;50.970;10.082;2023-05-10T06:14:45;2.92;;;1.80;;
64188;SDS011;50493;50.970;10.082;2023-05-10T06:17:12;3.80;;;1.85;;
64188;SDS011;50493;50.970;10.082;2023-05-10T06:19:37;1.50;;;1.20;;
64188;SDS011;50493;50.970;10.082;2023-05-10T06:22:03;4.13;;;3.03;;
64188;SDS011;50493;50.970;10.082;2023-05-10T06:24:28;1.95;;;1.30;;
64188;SDS011;50493;50.970;10.082;2023-05-10T06:26:53;3.20;;;2.33;;
64188;SDS011;50493;50.970;10.082;2023-05-10T06:29:19;4.57;;;3.10;;
64188;SDS011;50493;50.970;10.082;2023-05-10T06:31:44;1.95;;;1.40;;
64188;SDS011;50493;50.970;10.082;2023-05-10T06:34:11;4.03;;;3.00;;
64188;SDS011;50493;50.970;10.082;2023-05-10T06:36:36;2.17;;;1.88;;
64188;SDS011;50493;50.970;10.082;2023-05-10T06:39:02;3.10;;;2.13;;
64188;SDS011;50493;50.970;10.082;2023-05-10T06:41:27;0.80;;;0.80;;
64188;SDS011;50493;50.970;10.082;2023-05-10T06:43:53;1.35;;;0.88;;
64188;SDS011;50493;50.970;10.082;2023-05-10T06:46:18;2.08;;;1.45;;
64188;SDS011;50493;50.970;10.082;2023-05-10T06:48:43;2.25;;;1.60;;
64188;SDS011;50493;50.970;10.082;2023-05-10T06:51:11;2.55;;;1.20;;
64188;SDS011;50493;50.970;10.082;2023-05-10T06:53:36;2.88;;;1.20;;
64188;SDS011;50493;50.970;10.082;2023-05-10T06:56:01;1.90;;;0.90;;
64188;SDS011;50493;50.970;10.082;2023-05-10T06:58:28;2.47;;;1.80;;
64188;SDS011;50493;50.970;10.082;2023-05-10T07:00:53;3.38;;;2.60;;
64188;SDS011;50493;50.970;10.082;2023-05-10T07:03:18;3.33;;;1.05;;
64188;SDS011;50493;50.970;10.082;2023-05-10T07:05:44;3.53;;;2.30;;
64188;SDS011;50493;50.970;10.082;2023-05-10T07:08:10;2.53;;;1.70;;
64188;SDS011;50493;50.970;10.082;2023-05-10T07:10:36;4.28;;;2.65;;
64188;SDS011;50493;50.970;10.082;2023-05-10T07:13:01;3.35;;;2.42;;
64188;SDS011;50493;50.970;10.082;2023-05-10T07:15:26;3.10;;;2.10;;
64188;SDS011;50493;50.970;10.082;2023-05-10T07:17:52;3.58;;;2.40;;
64188;SDS011;50493;50.970;10.082;2023-05-10T07:20:18;2.88;;;1.98;;
64188;SDS011;50493;50.970;10.082;2023-05-10T07:22:43;3.17;;;2.10;;
64188;SDS011;50493;50.970;10.082;2023-05-10T07:25:10;3.42;;;2.00;;
64188;SDS011;50493;50.970;10.082;2023-05-10T07:27:35;2.78;;;2.03;;
64188;SDS011;50493;50.970;10.082;2023-05-10T07:30:01;4.10;;;2.22;;
64188;SDS011;50493;50.970;10.082;2023-05-10T07:32:26;3.17;;;2.10;;
64188;SDS011;50493;50.970;10.082;2023-05-10T07:34:52;1.65;;;0.88;;
64188;SDS011;50493;50.970;10.082;2023-05-10T07:37:17;2.70;;;1.60;;
64188;SDS011;50493;50.970;10.082;2023-05-10T07:39:42;3.33;;;1.77;;
64188;SDS011;50493;50.970;10.082;2023-05-10T07:42:09;2.50;;;1.50;;
64188;SDS011;50493;50.970;10.082;2023-05-10T07:44:34;1.70;;;1.25;;
64188;SDS011;50493;50.970;10.082;2023-05-10T07:46:59;2.65;;;1.35;;
64188;SDS011;50493;50.970;10.082;2023-05-10T07:49:25;2.47;;;1.58;;
64188;SDS011;50493;50.970;10.082;2023-05-10T07:51:50;1.98;;;1.50;;
64188;SDS011;50493;50.970;10.082;2023-05-10T07:54:16;2.20;;;1.60;;
64188;SDS011;50493;50.970;10.082;2023-05-10T07:56:42;1.88;;;1.40;;
64188;SDS011;50493;50.970;10.082;2023-05-10T07:59:14;1.20;;;1.00;;
64188;SDS011;50493;50.970;10.082;2023-05-10T08:01:40;3.22;;;1.40;;
64188;SDS011;50493;50.970;10.082;2023-05-10T08:04:05;2.30;;;1.40;;
64188;SDS011;50493;50.970;10.082;2023-05-10T08:06:30;2.30;;;1.58;;
64188;SDS011;50493;50.970;10.082;2023-05-10T08:08:56;1.40;;;1.00;;
64188;SDS011;50493;50.970;10.082;2023-05-10T08:11:21;1.63;;;1.25;;
64188;SDS011;50493;50.970;10.082;2023-05-10T08:13:48;1.27;;;1.08;;
64188;SDS011;50493;50.970;10.082;2023-05-10T08:16:16;1.90;;;1.30;;
64188;SDS011;50493;50.970;10.082;2023-05-10T08:18:42;2.22;;;1.27;;
64188;SDS011;50493;50.970;10.082;2023-05-10T08:21:08;0.70;;;0.60;;
64188;SDS011;50493;50.970;10.082;2023-05-10T08:23:36;1.50;;;1.00;;
64188;SDS011;50493;50.970;10.082;2023-05-10T08:26:01;2.25;;;1.35;;
64188;SDS011;50493;50.970;10.082;2023-05-10T08:28:27;2.08;;;1.23;;
64188;SDS011;50493;50.970;10.082;2023-05-10T08:30:52;1.65;;;1.20;;
64188;SDS011;50493;50.970;10.082;2023-05-10T08:33:19;1.60;;;1.30;;
64188;SDS011;50493;50.970;10.082;2023-05-10T08:35:44;1.92;;;1.38;;
64188;SDS011;50493;50.970;10.082;2023-05-10T08:38:10;1.83;;;1.38;;
64188;SDS011;50493;50.970;10.082;2023-05-10T08:40:36;1.60;;;1.00;;
64188;SDS011;50493;50.970;10.082;2023-05-10T08:43:04;1.60;;;1.23;;
64188;SDS011;50493;50.970;10.082;2023-05-10T08:45:32;1.50;;;1.10;;
64188;SDS011;50493;50.970;10.082;2023-05-10T08:47:58;2.42;;;1.30;;
64188;SDS011;50493;50.970;10.082;2023-05-10T08:50:27;1.70;;;1.30;;
64188;SDS011;50493;50.970;10.082;2023-05-10T08:52:55;2.10;;;1.40;;
64188;SDS011;50493;50.970;10.082;2023-05-10T08:55:22;1.55;;;1.25;;
64188;SDS011;50493;50.970;10.082;2023-05-10T08:57:48;1.40;;;1.20;;
64188;SDS011;50493;50.970;10.082;2023-05-10T09:00:14;1.83;;;1.13;;
64188;SDS011;50493;50.970;10.082;2023-05-10T09:02:42;1.67;;;1.23;;
64188;SDS011;50493;50.970;10.082;2023-05-10T09:05:08;1.60;;;1.20;;
64188;SDS011;50493;50.970;10.082;2023-05-10T09:07:36;1.85;;;1.30;;
64188;SDS011;50493;50.970;10.082;2023-05-10T09:10:02;2.15;;;1.20;;
64188;SDS011;50493;50.970;10.082;2023-05-10T09:12:29;1.77;;;1.13;;
64188;SDS011;50493;50.970;10.082;2023-05-10T09:14:54;1.70;;;1.20;;
64188;SDS011;50493;50.970;10.082;2023-05-10T09:17:23;1.67;;;1.30;;
64188;SDS011;50493;50.970;10.082;2023-05-10T09:19:49;1.70;;;1.30;;
64188;SDS011;50493;50.970;10.082;2023-05-10T09:22:14;2.00;;;1.30;;
64188;SDS011;50493;50.970;10.082;2023-05-10T09:24:43;1.75;;;1.25;;
64188;SDS011;50493;50.970;10.082;2023-05-10T09:27:10;2.53;;;1.30;;
64188;SDS011;50493;50.970;10.082;2023-05-10T09:29:38;2.15;;;1.42;;
64188;SDS011;50493;50.970;10.082;2023-05-10T09:32:04;1.70;;;1.30;;
64188;SDS011;50493;50.970;10.082;2023-05-10T09:34:31;2.00;;;1.33;;
64188;SDS011;50493;50.970;10.082;2023-05-10T09:36:57;1.48;;;1.20;;
64188;SDS011;50493;50.970;10.082;2023-05-10T09:39:31;1.50;;;1.20;;
64188;SDS011;50493;50.970;10.082;2023-05-10T09:41:59;2.35;;;1.50;;
64188;SDS011;50493;50.970;10.082;2023-05-10T09:44:26;2.83;;;1.30;;
64188;SDS011;50493;50.970;10.082;2023-05-10T09:46:52;2.72;;;1.40;;
64188;SDS011;50493;50.970;10.082;2023-05-10T09:49:20;2.17;;;1.30;;
64188;SDS011;50493;50.970;10.082;2023-05-10T09:51:46;1.80;;;1.17;;
64188;SDS011;50493;50.970;10.082;2023-05-10T09:54:12;1.40;;;1.10;;
64188;SDS011;50493;50.970;10.082;2023-05-10T09:56:39;2.08;;;1.40;;
64188;SDS011;50493;50.970;10.082;2023-05-10T09:59:07;2.10;;;1.30;;
64188;SDS011;50493;50.970;10.082;2023-05-10T10:01:36;1.75;;;1.27;;
64188;SDS011;50493;50.970;10.082;2023-05-10T10:04:02;1.77;;;1.27;;
64188;SDS011;50493;50.970;10.082;2023-05-10T10:06:28;2.58;;;1.27;;
64188;SDS011;50493;50.970;10.082;2023-05-10T10:08:54;1.65;;;1.20;;
64188;SDS011;50493;50.970;10.082;2023-05-10T10:11:21;2.22;;;1.10;;
64188;SDS011;50493;50.970;10.082;2023-05-10T10:13:47;1.98;;;1.10;;
64188;SDS011;50493;50.970;10.082;2023-05-10T10:16:15;1.50;;;1.25;;
64188;SDS011;50493;50.970;10.082;2023-05-10T10:18:40;1.70;;;1.20;;
64188;SDS011;50493;50.970;10.082;2023-05-10T10:21:07;2.17;;;1.40;;
64188;SDS011;50493;50.970;10.082;2023-05-10T10:23:35;1.50;;;1.20;;
64188;SDS011;50493;50.970;10.082;2023-05-10T10:26:01;2.92;;;1.20;;
64188;SDS011;50493;50.970;10.082;2023-05-10T10:28:31;2.38;;;1.30;;
64188;SDS011;50493;50.970;10.082;2023-05-10T10:31:01;1.40;;;1.30;;
64188;SDS011;50493;50.970;10.082;2023-05-10T10:33:47;1.88;;;1.20;;
64188;SDS011;50493;50.970;10.082;2023-05-10T10:36:20;1.55;;;1.20;;
64188;SDS011;50493;50.970;10.082;2023-05-10T10:38:55;1.95;;;1.02;;
64188;SDS011;50493;50.970;10.082;2023-05-10T10:41:28;2.03;;;1.00;;
64188;SDS011;50493;50.970;10.082;2023-05-10T10:46:59;1.50;;;1.00;;
64188;SDS011;50493;50.970;10.082;2023-05-10T10:49:27;1.63;;;1.20;;
64188;SDS011;50493;50.970;10.082;2023-05-10T10:52:13;1.52;;;1.10;;
64188;SDS011;50493;50.970;10.082;2023-05-10T10:54:47;1.77;;;1.30;;
64188;SDS011;50493;50.970;10.082;2023-05-10T10:57:17;1.20;;;1.00;;
64188;SDS011;50493;50.970;10.082;2023-05-10T10:59:43;1.73;;;1.05;;
64188;SDS011;50493;50.970;10.082;2023-05-10T11:02:09;1.40;;;1.10;;
64188;SDS011;50493;50.970;10.082;2023-05-10T11:04:42;1.95;;;1.08;;
64188;SDS011;50493;50.970;10.082;2023-05-10T11:07:17;1.65;;;1.10;;
64188;SDS011;50493;50.970;10.082;2023-05-10T11:09:42;1.38;;;1.10;;
64188;SDS011;50493;50.970;10.082;2023-05-10T11:12:08;2.33;;;1.20;;
64188;SDS011;50493;50.970;10.082;2023-05-10T11:14:34;1.33;;;1.20;;
64188;SDS011;50493;50.970;10.082;2023-05-10T11:16:59;1.20;;;1.10;;
64188;SDS011;50493;50.970;10.082;2023-05-10T11:19:26;1.80;;;1.15;;
64188;SDS011;50493;50.970;10.082;2023-05-10T11:22:12;1.77;;;1.30;;
64188;SDS011;50493;50.970;10.082;2023-05-10T11:24:38;1.73;;;1.05;;
64188;SDS011;50493;50.970;10.082;2023-05-10T11:27:04;1.92;;;1.20;;
64188;SDS011;50493;50.970;10.082;2023-05-10T11:29:30;1.38;;;1.00;;
64188;SDS011;50493;50.970;10.082;2023-05-10T11:31:56;1.63;;;1.10;;
64188;SDS011;50493;50.970;10.082;2023-05-10T11:34:22;1.77;;;1.10;;
64188;SDS011;50493;50.970;10.082;2023-05-10T11:36:50;2.63;;;1.25;;
64188;SDS011;50493;50.970;10.082;2023-05-10T11:39:17;1.40;;;1.20;;
64188;SDS011;50493;50.970;10.082;2023-05-10T11:41:43;2.78;;;1.30;;
64188;SDS011;50493;50.970;10.082;2023-05-10T11:44:13;1.92;;;1.30;;
64188;SDS011;50493;50.970;10.082;2023-05-10T11:46:38;2.22;;;1.10;;
64188;SDS011;50493;50.970;10.082;2023-05-10T11:49:04;2.85;;;1.40;;
64188;SDS011;50493;50.970;10.082;2023-05-10T11:51:33;1.80;;;1.30;;
64188;SDS011;50493;50.970;10.082;2023-05-10T11:54:00;2.83;;;1.10;;
64188;SDS011;50493;50.970;10.082;2023-05-10T11:56:26;1.30;;;1.20;;
64188;SDS011;50493;50.970;10.082;2023-05-10T11:58:52;2.78;;;1.30;;
64188;SDS011;50493;50.970;10.082;2023-05-10T12:01:18;2.00;;;1.38;;
64188;SDS011;50493;50.970;10.082;2023-05-10T12:03:44;2.00;;;1.35;;
64188;SDS011;50493;50.970;10.082;2023-05-10T12:06:10;1.30;;;1.20;;
64188;SDS011;50493;50.970;10.082;2023-05-10T12:08:35;1.85;;;1.25;;
64188;SDS011;50493;50.970;10.082;2023-05-10T12:11:04;1.88;;;1.23;;
64188;SDS011;50493;50.970;10.082;2023-05-10T12:13:32;2.10;;;1.20;;
64188;SDS011;50493;50.970;10.082;2023-05-10T12:15:57;2.08;;;1.20;;
64188;SDS011;50493;50.970;10.082;2023-05-10T12:18:23;2.53;;;1.70;;
64188;SDS011;50493;50.970;10.082;2023-05-10T12:20:51;1.98;;;1.60;;
64188;SDS011;50493;50.970;10.082;2023-05-10T12:23:18;1.92;;;1.33;;
64188;SDS011;50493;50.970;10.082;2023-05-10T12:25:45;2.13;;;1.50;;
64188;SDS011;50493;50.970;10.082;2023-05-10T12:28:10;2.38;;;1.30;;
64188;SDS011;50493;50.970;10.082;2023-05-10T12:30:37;1.75;;;1.30;;
64188;SDS011;50493;50.970;10.082;2023-05-10T12:33:07;3.03;;;2.03;;
64188;SDS011;50493;50.970;10.082;2023-05-10T12:35:33;1.98;;;1.20;;
64188;SDS011;50493;50.970;10.082;2023-05-10T12:38:22;3.28;;;1.30;;
64188;SDS011;50493;50.970;10.082;2023-05-10T12:40:50;2.25;;;1.42;;
64188;SDS011;50493;50.970;10.082;2023-05-10T12:43:15;2.45;;;1.65;;
64188;SDS011;50493;50.970;10.082;2023-05-10T12:45:41;2.42;;;1.20;;
64188;SDS011;50493;50.970;10.082;2023-05-10T12:48:07;2.10;;;1.30;;
64188;SDS011;50493;50.970;10.082;2023-05-10T12:50:32;2.63;;;1.23;;
64188;SDS011;50493;50.970;10.082;2023-05-10T12:52:58;3.05;;;1.30;;
64188;SDS011;50493;50.970;10.082;2023-05-10T12:55:23;1.60;;;1.30;;
64188;SDS011;50493;50.970;10.082;2023-05-10T12:57:48;2.92;;;1.20;;
64188;SDS011;50493;50.970;10.082;2023-05-10T13:00:14;1.50;;;1.30;;
64188;SDS011;50493;50.970;10.082;2023-05-10T13:02:41;2.10;;;1.30;;
64188;SDS011;50493;50.970;10.082;2023-05-10T13:05:07;1.77;;;1.50;;
64188;SDS011;50493;50.970;10.082;2023-05-10T13:07:32;2.10;;;1.00;;
64188;SDS011;50493;50.970;10.082;2023-05-10T13:09:58;1.83;;;1.17;;
64188;SDS011;50493;50.970;10.082;2023-05-10T13:12:23;2.38;;;1.25;;
64188;SDS011;50493;50.970;10.082;2023-05-10T13:14:48;1.58;;;1.13;;
64188;SDS011;50493;50.970;10.082;2023-05-10T13:17:14;1.60;;;1.20;;
64188;SDS011;50493;50.970;10.082;2023-05-10T13:19:40;2.33;;;1.30;;
64188;SDS011;50493;50.970;10.082;2023-05-10T13:22:06;2.33;;;1.48;;
64188;SDS011;50493;50.970;10.082;2023-05-10T13:24:31;1.85;;;1.27;;
64188;SDS011;50493;50.970;10.082;2023-05-10T13:26:57;1.38;;;1.25;;
64188;SDS011;50493;50.970;10.082;2023-05-10T13:29:23;1.60;;;1.25;;
64188;SDS011;50493;50.970;10.082;2023-05-10T13:31:48;1.73;;;1.30;;
64188;SDS011;50493;50.970;10.082;2023-05-10T13:34:14;2.10;;;1.45;;
64188;SDS011;50493;50.970;10.082;2023-05-10T13:36:40;2.35;;;1.60;;
64188;SDS011;50493;50.970;10.082;2023-05-10T13:39:06;3.58;;;1.55;;
64188;SDS011;50493;50.970;10.082;2023-05-10T13:41:31;2.00;;;1.40;;
64188;SDS011;50493;50.970;10.082;2023-05-10T13:43:56;3.53;;;1.40;;
64188;SDS011;50493;50.970;10.082;2023-05-10T13:46:22;3.53;;;1.52;;
64188;SDS011;50493;50.970;10.082;2023-05-10T13:48:48;4.32;;;1.50;;
64188;SDS011;50493;50.970;10.082;2023-05-10T13:51:13;3.97;;;1.50;;
64188;SDS011;50493;50.970;10.082;2023-05-10T13:53:40;4.47;;;1.60;;
64188;SDS011;50493;50.970;10.082;2023-05-10T13:56:05;4.00;;;1.60;;
64188;SDS011;50493;50.970;10.082;2023-05-10T13:58:31;3.28;;;1.50;;
64188;SDS011;50493;50.970;10.082;2023-05-10T14:00:56;4.88;;;1.60;;
64188;SDS011;50493;50.970;10.082;2023-05-10T14:03:22;3.38;;;1.60;;
64188;SDS011;50493;50.970;10.082;2023-05-10T14:05:47;2.75;;;1.75;;
64188;SDS011;50493;50.970;10.082;2023-05-10T14:08:12;3.35;;;1.63;;
64188;SDS011;50493;50.970;10.082;2023-05-10T14:10:39;3.97;;;1.73;;
64188;SDS011;50493;50.970;10.082;2023-05-10T14:13:04;3.92;;;1.60;;
64188;SDS011;50493;50.970;10.082;2023-05-10T14:15:31;4.50;;;1.63;;
64188;SDS011;50493;50.970;10.082;2023-05-10T14:17:56;2.80;;;1.52;;
64188;SDS011;50493;50.970;10.082;2023-05-10T14:20:21;2.70;;;1.70;;
64188;SDS011;50493;50.970;10.082;2023-05-10T14:22:47;2.92;;;1.67;;
64188;SDS011;50493;50.970;10.082;2023-05-10T14:25:12;3.42;;;1.50;;
64188;SDS011;50493;50.970;10.082;2023-05-10T14:27:40;3.33;;;1.50;;
64188;SDS011;50493;50.970;10.082;2023-05-10T14:30:06;3.42;;;1.80;;
64188;SDS011;50493;50.970;10.082;2023-05-10T14:32:32;2.55;;;1.70;;
64188;SDS011;50493;50.970;10.082;2023-05-10T14:34:58;4.78;;;1.92;;
64188;SDS011;50493;50.970;10.082;2023-05-10T14:37:24;3.58;;;1.63;;